Time;durP1;ratioP1;P1;durP2;ratioP2;P2;SDS_P1;SDS_P2;PMS_P1;PMS_P2;Temp;Humidity;BMP_temperature;BMP_pressure;BME280_temperature;BME280_humidity;BME280_pressure;Samples;Min_cycle;Max_cycle;Signal;HPM_P1;HPM_P2
2021/06/21 00:02:00;;;;;;;5.63;0.60;;;16.40;99.90;;;;;;5032614;28;20052;-75
2021/06/21 00:04:26;;;;;;;3.95;0.43;;;16.40;99.90;;;;;;5032881;28;20060;-74
2021/06/21 00:06:51;;;;;;;3.60;0.50;;;16.30;99.90;;;;;;5033559;28;20025;-74
2021/06/21 00:09:17;;;;;;;2.80;0.98;;;16.30;99.90;;;;;;5014399;28;20057;-74
2021/06/21 00:11:42;;;;;;;2.58;0.80;;;16.30;99.90;;;;;;5015551;28;20507;-74
2021/06/21 00:14:08;;;;;;;4.65;0.82;;;16.30;99.90;;;;;;5033059;28;20029;-75
2021/06/21 00:16:33;;;;;;;2.17;1.02;;;16.20;99.90;;;;;;5033197;28;20101;-74
2021/06/21 00:18:59;;;;;;;2.33;0.63;;;16.20;99.90;;;;;;5015063;28;20502;-75
2021/06/21 00:21:25;;;;;;;5.80;0.70;;;16.20;99.90;;;;;;5014442;28;20026;-75
2021/06/21 00:23:50;;;;;;;4.47;0.98;;;16.20;99.90;;;;;;5032667;28;20033;-74
2021/06/21 00:26:16;;;;;;;4.07;0.75;;;16.20;99.90;;;;;;5032997;28;20120;-74
2021/06/21 00:28:42;;;;;;;3.33;0.80;;;16.10;99.90;;;;;;5015065;28;20528;-74
2021/06/21 00:31:08;;;;;;;4.75;0.98;;;16.00;99.90;;;;;;5032919;28;20030;-74
2021/06/21 00:33:33;;;;;;;2.63;0.70;;;16.00;99.90;;;;;;5032708;28;20025;-75
2021/06/21 00:35:59;;;;;;;4.00;1.10;;;16.00;99.90;;;;;;5032614;28;20025;-75
2021/06/21 00:38:24;;;;;;;2.20;0.98;;;15.90;99.90;;;;;;5014995;28;20022;-74
2021/06/21 00:40:50;;;;;;;4.97;1.08;;;15.90;99.90;;;;;;5015257;28;20022;-75
2021/06/21 00:43:15;;;;;;;3.58;0.90;;;15.90;99.90;;;;;;5015079;28;20368;-74
2021/06/21 00:45:41;;;;;;;4.00;0.85;;;15.90;99.90;;;;;;5015232;28;20072;-74
2021/06/21 00:48:07;;;;;;;1.70;0.38;;;15.90;99.90;;;;;;5032695;28;20044;-75
2021/06/21 00:50:33;;;;;;;1.85;1.10;;;15.90;99.90;;;;;;5032300;28;20025;-74
2021/06/21 00:53:00;;;;;;;3.90;1.10;;;15.90;99.90;;;;;;5032740;28;20512;-74
2021/06/21 00:55:28;;;;;;;1.50;1.02;;;15.90;99.90;;;;;;5015039;28;20483;-76
2021/06/21 00:57:54;;;;;;;1.58;0.70;;;15.90;99.90;;;;;;5032782;28;20024;-76
2021/06/21 01:00:26;;;;;;;4.13;1.70;;;15.90;99.90;;;;;;5032737;28;20029;-76
2021/06/21 01:02:52;;;;;;;4.68;1.85;;;15.80;99.90;;;;;;5032788;28;20084;-76
2021/06/21 01:05:34;;;;;;;3.30;1.08;;;15.90;99.90;;;;;;5015063;28;20032;-76
2021/06/21 01:08:00;;;;;;;3.67;1.05;;;15.80;99.90;;;;;;5032657;28;20022;-75
2021/06/21 01:10:26;;;;;;;3.25;1.13;;;15.80;99.90;;;;;;5032627;28;20101;-76
2021/06/21 01:13:04;;;;;;;4.05;1.20;;;15.80;99.90;;;;;;5033459;28;20475;-75
2021/06/21 01:15:36;;;;;;;4.97;0.93;;;15.80;99.90;;;;;;5018613;28;20044;-75
2021/06/21 01:18:13;;;;;;;4.32;1.33;;;15.80;99.90;;;;;;5036139;28;20029;-75
2021/06/21 01:21:06;;;;;;;3.55;1.30;;;15.80;99.90;;;;;;5036218;28;20030;-75
2021/06/21 01:24:07;;;;;;;4.10;1.55;;;15.70;99.90;;;;;;5018311;28;20030;-76
2021/06/21 01:26:44;;;;;;;7.15;1.55;;;15.70;99.90;;;;;;5018560;28;20079;-75
2021/06/21 01:29:53;;;;;;;2.83;0.90;;;15.80;99.90;;;;;;5035811;28;20083;-76
2021/06/21 01:32:38;;;;;;;4.80;2.20;;;15.80;99.90;;;;;;5036075;28;20463;-76
2021/06/21 01:35:05;;;;;;;4.93;1.58;;;15.80;99.90;;;;;;5035414;28;20360;-76
2021/06/21 01:37:31;;;;;;;5.22;1.55;;;15.70;99.90;;;;;;5017694;28;20033;-76
2021/06/21 01:40:00;;;;;;;3.58;1.20;;;15.70;99.90;;;;;;5035522;28;20025;-76
2021/06/21 01:42:26;;;;;;;6.32;1.08;;;15.70;99.90;;;;;;5035783;28;20471;-76
2021/06/21 01:45:07;;;;;;;4.20;1.90;;;15.70;99.90;;;;;;5035768;28;20096;-76
2021/06/21 01:47:34;;;;;;;3.13;1.00;;;15.60;99.90;;;;;;5037013;28;20463;-77
2021/06/21 01:50:00;;;;;;;4.30;1.40;;;15.60;99.90;;;;;;5057066;22;20391;-78
2021/06/21 01:52:33;;;;;;;3.00;1.20;;;15.70;99.90;;;;;;5036843;28;20026;-78
2021/06/21 01:54:59;;;;;;;6.30;1.27;;;15.70;99.90;;;;;;5036494;28;20028;-78
2021/06/21 01:57:29;;;;;;;4.85;0.93;;;15.70;99.90;;;;;;5036621;28;20036;-78
2021/06/21 01:59:56;;;;;;;4.25;1.25;;;15.70;99.90;;;;;;5036346;28;20030;-78
2021/06/21 02:02:23;;;;;;;4.10;1.25;;;15.70;99.90;;;;;;5018693;28;20032;-78
2021/06/21 02:04:53;;;;;;;4.93;1.50;;;15.60;99.90;;;;;;5036535;28;20456;-78
2021/06/21 02:07:21;;;;;;;2.63;1.10;;;15.60;99.90;;;;;;5036529;28;20073;-77
2021/06/21 02:09:52;;;;;;;3.55;0.90;;;15.60;99.90;;;;;;5141729;22;20025;-75
2021/06/21 02:12:19;;;;;;;2.88;1.27;;;17.40;99.90;;;;;;5033224;28;20417;-75
2021/06/21 02:14:50;;;;;;;5.72;1.42;;;15.60;99.90;;;;;;5017365;28;20500;-76
2021/06/21 02:17:22;;;;;;;4.82;1.45;;;15.60;99.90;;;;;;5035401;28;20029;-78
2021/06/21 02:19:50;;;;;;;3.50;1.63;;;15.60;99.90;;;;;;4997854;28;20034;-77
2021/06/21 02:22:19;;;;;;;3.28;1.70;;;15.50;99.90;;;;;;4997951;28;20058;-75
2021/06/21 02:24:44;;;;;;;2.38;1.10;;;15.40;99.90;;;;;;5014296;28;20084;-75
2021/06/21 02:27:10;;;;;;;7.65;2.35;;;15.40;99.90;;;;;;4997545;28;20030;-75
2021/06/21 02:29:37;;;;;;;5.38;1.45;;;15.40;99.90;;;;;;5014840;28;20031;-75
2021/06/21 02:32:03;;;;;;;7.68;2.30;;;15.40;99.90;;;;;;5015207;28;20025;-75
2021/06/21 02:34:30;;;;;;;6.72;2.00;;;15.30;99.90;;;;;;4997365;28;20030;-75
2021/06/21 02:36:56;;;;;;;7.63;1.67;;;15.30;99.90;;;;;;5015572;28;20030;-75
2021/06/21 02:39:21;;;;;;;7.53;2.13;;;15.20;99.90;;;;;;5014850;28;20071;-75
2021/06/21 02:41:47;;;;;;;11.07;1.83;;;15.20;99.90;;;;;;5195884;22;20041;-75
2021/06/21 02:44:12;;;;;;;4.65;1.90;;;15.10;99.90;;;;;;5055619;28;20016;-73
2021/06/21 02:46:38;;;;;;;4.00;1.10;;;15.10;99.90;;;;;;5074516;28;20084;-75
2021/06/21 02:49:04;;;;;;;5.03;1.80;;;15.00;99.90;;;;;;5074086;28;20087;-76
2021/06/21 02:51:44;;;;;;;2.42;1.23;;;15.00;99.90;;;;;;5074718;28;20032;-77
2021/06/21 02:54:17;;;;;;;4.72;1.73;;;14.90;99.90;;;;;;5074473;28;20024;-77
2021/06/21 02:57:02;;;;;;;4.25;1.30;;;14.90;99.90;;;;;;5074155;28;20024;-77
2021/06/21 02:59:32;;;;;;;2.85;1.73;;;14.90;99.90;;;;;;5074251;28;20508;-76
2021/06/21 03:02:00;;;;;;;3.67;1.48;;;14.90;99.90;;;;;;5074123;28;20028;-76
2021/06/21 03:04:27;;;;;;;3.42;1.08;;;14.90;99.90;;;;;;5073012;28;20020;-77
2021/06/21 03:06:53;;;;;;;4.30;1.40;;;15.00;99.90;;;;;;5073773;28;20052;-76
2021/06/21 03:09:21;;;;;;;5.45;1.23;;;14.90;99.90;;;;;;5055622;28;20078;-77
2021/06/21 03:11:51;;;;;;;2.90;1.67;;;14.80;99.90;;;;;;5072484;28;20113;-76
2021/06/21 03:14:22;;;;;;;2.65;1.15;;;14.80;99.90;;;;;;5073761;28;20027;-76
2021/06/21 03:16:51;;;;;;;3.90;0.77;;;14.80;99.90;;;;;;5072754;28;20099;-77
2021/06/21 03:19:17;;;;;;;3.28;1.00;;;14.80;99.90;;;;;;5072937;28;20031;-77
2021/06/21 03:21:44;;;;;;;5.78;1.35;;;14.80;99.90;;;;;;5053876;28;20060;-78
2021/06/21 03:24:13;;;;;;;4.78;0.95;;;14.80;99.90;;;;;;5069758;28;20047;-78
2021/06/21 03:26:40;;;;;;;3.20;1.10;;;14.70;99.90;;;;;;5069923;28;20025;-77
2021/06/21 03:29:17;;;;;;;4.20;1.08;;;14.70;99.90;;;;;;5068679;28;20465;-79
2021/06/21 03:31:48;;;;;;;4.70;1.00;;;14.70;99.90;;;;;;5069522;28;20042;-77
2021/06/21 03:34:15;;;;;;;4.93;1.45;;;14.60;99.90;;;;;;5069898;28;20024;-77
2021/06/21 03:36:41;;;;;;;6.75;0.93;;;14.60;99.90;;;;;;5050631;28;20024;-78
2021/06/21 03:39:07;;;;;;;1.60;0.73;;;14.60;99.90;;;;;;5054140;28;20027;-77
2021/06/21 03:41:33;;;;;;;3.47;1.10;;;14.60;99.90;;;;;;5073828;28;20028;-77
2021/06/21 03:43:58;;;;;;;2.85;1.40;;;14.60;99.90;;;;;;5073361;28;20457;-76
2021/06/21 03:46:24;;;;;;;3.28;0.90;;;14.60;99.90;;;;;;5072972;28;20115;-77
2021/06/21 03:48:50;;;;;;;3.17;1.00;;;14.60;99.90;;;;;;5073195;28;20370;-77
2021/06/21 03:51:15;;;;;;;3.75;1.50;;;14.50;99.90;;;;;;5073028;28;20396;-77
2021/06/21 03:53:41;;;;;;;6.22;1.10;;;14.50;99.90;;;;;;5055135;28;20024;-77
2021/06/21 03:56:07;;;;;;;5.45;1.33;;;14.50;99.90;;;;;;5073241;28;20555;-77
2021/06/21 03:58:32;;;;;;;2.25;1.13;;;14.50;99.90;;;;;;5072937;28;21369;-77
2021/06/21 04:00:58;;;;;;;4.35;1.40;;;14.50;99.90;;;;;;5071450;28;20040;-77
2021/06/21 04:03:23;;;;;;;3.45;1.02;;;14.50;99.90;;;;;;5072962;28;20381;-77
2021/06/21 04:05:50;;;;;;;2.08;1.02;;;14.50;99.90;;;;;;5072756;28;20037;-77
2021/06/21 04:08:16;;;;;;;3.45;1.73;;;14.50;99.90;;;;;;5085284;28;20024;-78
2021/06/21 04:10:44;;;;;;;5.57;1.70;;;14.40;99.90;;;;;;5085808;28;20029;-78
2021/06/21 04:13:10;;;;;;;2.63;1.38;;;14.40;99.90;;;;;;5084997;28;20021;-78
2021/06/21 04:15:36;;;;;;;1.95;1.27;;;14.40;99.90;;;;;;5065087;28;20115;-78
2021/06/21 04:18:08;;;;;;;3.17;1.25;;;14.40;99.90;;;;;;5066371;28;20016;-78
2021/06/21 04:20:34;;;;;;;5.32;1.50;;;14.90;99.90;;;;;;5083646;28;20020;-78
2021/06/21 04:23:01;;;;;;;6.70;1.17;;;14.40;99.90;;;;;;5067980;28;20092;-78
2021/06/21 04:25:27;;;;;;;4.18;1.77;;;14.40;99.90;;;;;;5069941;28;20031;-78
2021/06/21 04:27:52;;;;;;;1.60;0.85;;;14.40;99.90;;;;;;5087123;28;20056;-79
2021/06/21 04:30:20;;;;;;;2.72;0.77;;;14.40;99.90;;;;;;5066962;28;20037;-78
2021/06/21 04:32:46;;;;;;;3.28;1.50;;;14.40;99.90;;;;;;5087753;28;20033;-78
2021/06/21 04:35:16;;;;;;;3.45;1.27;;;14.50;99.90;;;;;;5077459;28;20020;-76
2021/06/21 04:37:42;;;;;;;7.50;1.38;;;14.40;99.90;;;;;;5073368;28;20021;-79
2021/06/21 04:40:11;;;;;;;2.60;1.10;;;14.40;99.90;;;;;;5055285;28;20031;-78
2021/06/21 04:42:37;;;;;;;2.42;1.00;;;14.40;99.90;;;;;;5073217;28;20122;-77
2021/06/21 04:45:04;;;;;;;5.05;1.30;;;14.40;99.90;;;;;;5072603;28;20123;-77
2021/06/21 04:47:31;;;;;;;2.58;1.02;;;14.40;99.90;;;;;;5072779;28;20025;-77
2021/06/21 04:49:57;;;;;;;7.53;1.45;;;14.40;99.90;;;;;;5076391;28;20060;-76
2021/06/21 04:52:25;;;;;;;3.15;1.30;;;14.30;99.90;;;;;;5076438;28;20036;-77
2021/06/21 04:54:51;;;;;;;3.92;1.45;;;14.30;99.90;;;;;;5076454;28;20063;-76
2021/06/21 04:57:17;;;;;;;3.47;1.08;;;14.30;99.90;;;;;;5058364;28;20074;-76
2021/06/21 04:59:43;;;;;;;4.07;1.38;;;14.30;99.90;;;;;;5074910;28;20119;-76
2021/06/21 05:02:09;;;;;;;3.95;1.67;;;14.20;99.90;;;;;;5076335;28;20489;-77
2021/06/21 05:04:35;;;;;;;3.15;1.58;;;14.20;99.90;;;;;;5058226;28;20083;-77
2021/06/21 05:07:02;;;;;;;4.22;1.85;;;14.20;99.90;;;;;;5058597;28;20477;-75
2021/06/21 05:09:27;;;;;;;4.60;1.77;;;14.20;99.90;;;;;;5076013;28;20036;-77
2021/06/21 05:11:53;;;;;;;1.83;0.85;;;14.20;99.90;;;;;;5058352;28;20477;-76
2021/06/21 05:14:19;;;;;;;2.85;1.10;;;14.20;99.90;;;;;;5075630;28;20443;-75
2021/06/21 05:16:44;;;;;;;3.60;1.60;;;14.20;99.90;;;;;;5057919;28;20021;-75
2021/06/21 05:19:10;;;;;;;2.92;1.08;;;14.20;99.90;;;;;;5075761;28;20540;-75
2021/06/21 05:21:36;;;;;;;4.40;1.33;;;14.30;99.90;;;;;;5076033;28;20056;-76
2021/06/21 05:24:02;;;;;;;2.58;1.05;;;14.30;99.90;;;;;;5056749;28;20085;-75
2021/06/21 05:26:29;;;;;;;4.82;1.30;;;14.20;99.90;;;;;;5071957;28;20186;-76
2021/06/21 05:28:54;;;;;;;3.65;1.35;;;14.20;99.90;;;;;;5072008;28;20032;-76
2021/06/21 05:31:20;;;;;;;5.00;1.50;;;14.20;99.90;;;;;;5071415;28;20497;-76
2021/06/21 05:33:45;;;;;;;2.65;1.48;;;14.20;99.90;;;;;;5071991;28;20036;-75
2021/06/21 05:36:11;;;;;;;1.65;1.17;;;14.10;99.90;;;;;;5071323;28;20029;-75
2021/06/21 05:38:37;;;;;;;1.45;0.60;;;14.20;99.90;;;;;;5071954;28;20020;-75
2021/06/21 05:41:03;;;;;;;1.55;0.82;;;14.20;99.90;;;;;;5073341;28;20052;-76
2021/06/21 05:43:29;;;;;;;2.63;1.27;;;14.20;99.90;;;;;;5057442;28;20024;-74
2021/06/21 05:45:55;;;;;;;3.33;0.75;;;14.20;99.90;;;;;;5058809;28;20390;-77
2021/06/21 05:48:21;;;;;;;3.15;1.10;;;14.20;99.90;;;;;;5076112;28;20020;-77
2021/06/21 05:50:47;;;;;;;4.43;1.17;;;14.20;99.90;;;;;;5075654;28;20069;-77
2021/06/21 05:53:12;;;;;;;2.55;1.00;;;14.20;99.90;;;;;;5075178;28;20025;-77
2021/06/21 05:55:38;;;;;;;2.35;0.65;;;14.20;99.90;;;;;;5074895;28;20046;-77
2021/06/21 05:58:04;;;;;;;4.25;0.75;;;14.20;99.90;;;;;;5074980;28;20029;-75
2021/06/21 06:00:35;;;;;;;2.05;0.90;;;14.20;99.90;;;;;;5073864;28;20470;-75
2021/06/21 06:03:01;;;;;;;2.25;0.50;;;14.20;99.90;;;;;;5075596;28;20607;-75
2021/06/21 06:05:27;;;;;;;1.17;0.55;;;14.30;99.90;;;;;;5074923;28;20024;-75
2021/06/21 06:07:52;;;;;;;1.17;0.50;;;14.30;99.90;;;;;;5074909;28;20029;-75
2021/06/21 06:10:18;;;;;;;4.38;0.55;;;14.20;99.90;;;;;;5056966;28;20077;-75
2021/06/21 06:12:44;;;;;;;4.68;0.25;;;14.20;99.90;;;;;;5075480;28;20535;-75
2021/06/21 06:15:13;;;;;;;1.38;0.40;;;14.20;99.90;;;;;;5074967;28;20020;-74
2021/06/21 06:17:39;;;;;;;0.85;0.22;;;14.30;99.90;;;;;;5074944;28;20081;-75
2021/06/21 06:20:06;;;;;;;0.65;0.22;;;14.30;99.90;;;;;;5056907;28;20017;-75
2021/06/21 06:22:32;;;;;;;0.77;0.17;;;14.30;99.90;;;;;;5057117;28;20435;-75
2021/06/21 06:24:58;;;;;;;0.88;0.30;;;14.30;99.90;;;;;;5074820;28;20028;-74
2021/06/21 06:27:23;;;;;;;1.05;0.30;;;14.30;99.90;;;;;;5067520;28;20029;-74
2021/06/21 06:29:49;;;;;;;1.95;0.20;;;14.30;99.90;;;;;;5056983;28;20040;-75
2021/06/21 06:32:14;;;;;;;5.57;0.55;;;14.30;99.90;;;;;;5069585;28;20017;-75
2021/06/21 06:34:40;;;;;;;1.83;0.30;;;14.30;99.90;;;;;;5072999;28;20117;-74
2021/06/21 06:37:06;;;;;;;1.40;0.28;;;14.30;99.90;;;;;;5074662;28;20028;-75
2021/06/21 06:39:32;;;;;;;0.50;0.30;;;14.30;99.90;;;;;;5056671;28;20389;-75
2021/06/21 06:41:58;;;;;;;1.98;0.30;;;14.30;99.90;;;;;;5074698;28;20032;-75
2021/06/21 06:44:23;;;;;;;1.38;0.20;;;14.30;99.90;;;;;;5073998;28;20376;-74
2021/06/21 06:46:49;;;;;;;1.73;0.70;;;14.30;99.90;;;;;;5073882;28;20488;-75
2021/06/21 06:49:15;;;;;;;2.15;0.40;;;14.40;99.90;;;;;;5074046;28;20066;-75
2021/06/21 06:51:42;;;;;;;2.35;0.20;;;14.40;99.90;;;;;;5056193;28;20481;-75
2021/06/21 06:57:00;;;;;;;3.33;0.28;;;14.40;99.90;;;;;;5074127;28;20047;-75
2021/06/21 06:59:31;;;;;;;2.38;0.15;;;14.40;99.90;;;;;;5055283;28;20062;-75
2021/06/21 07:01:58;;;;;;;3.50;0.52;;;14.30;99.90;;;;;;5056389;28;20025;-75
2021/06/21 07:04:25;;;;;;;0.82;0.20;;;14.30;99.90;;;;;;5073643;28;20017;-75
2021/06/21 07:06:50;;;;;;;6.20;0.90;;;14.30;99.90;;;;;;5074059;28;20563;-75
2021/06/21 07:09:17;;;;;;;4.10;0.57;;;14.30;99.90;;;;;;5074042;28;20051;-75
2021/06/21 07:11:43;;;;;;;2.10;0.40;;;14.30;99.90;;;;;;5073334;28;20111;-75
2021/06/21 07:14:09;;;;;;;0.50;0.20;;;14.20;99.90;;;;;;5073842;28;20566;-75
2021/06/21 07:16:36;;;;;;;6.13;1.00;;;14.20;99.90;;;;;;5073769;28;20466;-75
2021/06/21 07:19:02;;;;;;;3.65;1.05;;;14.20;99.90;;;;;;5073748;28;20553;-75
2021/06/21 07:21:27;;;;;;;3.28;0.47;;;14.20;99.90;;;;;;5055949;28;20024;-75
2021/06/21 07:23:53;;;;;;;6.07;1.08;;;14.30;99.90;;;;;;5073833;28;20020;-75
2021/06/21 07:26:20;;;;;;;2.97;0.77;;;14.30;99.90;;;;;;5073557;28;20556;-75
2021/06/21 07:28:46;;;;;;;1.70;0.60;;;14.40;99.90;;;;;;5073396;28;20025;-75
2021/06/21 07:31:11;;;;;;;3.60;0.47;;;14.40;99.90;;;;;;5073307;28;20024;-75
2021/06/21 07:33:38;;;;;;;4.22;0.47;;;14.40;99.90;;;;;;5073707;28;20047;-75
2021/06/21 07:36:05;;;;;;;1.52;0.22;;;14.40;99.90;;;;;;5073944;28;20020;-74
2021/06/21 07:38:31;;;;;;;3.42;0.40;;;14.40;99.90;;;;;;5073562;28;20027;-74
2021/06/21 07:40:56;;;;;;;2.10;0.52;;;14.40;99.90;;;;;;5055412;28;20115;-75
2021/06/21 07:43:22;;;;;;;1.15;0.20;;;14.50;99.90;;;;;;5073219;28;20032;-74
2021/06/21 07:45:47;;;;;;;3.47;0.63;;;14.60;99.90;;;;;;5073105;28;20033;-75
2021/06/21 07:48:13;;;;;;;0.75;0.20;;;14.60;99.90;;;;;;5073116;28;20073;-75
2021/06/21 07:50:39;;;;;;;1.65;0.65;;;14.60;99.90;;;;;;5072892;28;20036;-75
2021/06/21 07:53:06;;;;;;;1.55;0.20;;;14.70;99.90;;;;;;5073383;28;20047;-75
2021/06/21 07:55:33;;;;;;;1.30;0.28;;;14.70;99.90;;;;;;5073276;28;20028;-75
2021/06/21 07:57:59;;;;;;;7.47;0.38;;;14.70;99.90;;;;;;5072598;28;20029;-75
2021/06/21 08:00:26;;;;;;;2.13;0.22;;;14.80;99.90;;;;;;5072860;28;20030;-75
2021/06/21 08:02:52;;;;;;;0.85;0.32;;;14.80;99.90;;;;;;5073142;28;20028;-75
2021/06/21 08:05:18;;;;;;;1.55;0.40;;;14.80;99.90;;;;;;5072870;28;20048;-75
2021/06/21 08:07:44;;;;;;;2.17;0.30;;;14.80;99.90;;;;;;5073064;28;20032;-75
2021/06/21 08:10:11;;;;;;;1.98;0.10;;;14.80;99.90;;;;;;5073143;28;20033;-75
2021/06/21 08:12:37;;;;;;;0.50;0.10;;;14.90;99.90;;;;;;5073292;28;20013;-75
2021/06/21 08:15:04;;;;;;;3.10;0.70;;;14.80;99.90;;;;;;5073316;28;20487;-75
2021/06/21 08:17:30;;;;;;;2.28;0.35;;;14.90;99.90;;;;;;5073450;28;20059;-75
2021/06/21 08:19:55;;;;;;;2.55;0.35;;;14.90;99.90;;;;;;5073273;28;20029;-75
2021/06/21 08:22:23;;;;;;;2.72;0.20;;;14.90;99.90;;;;;;5073121;28;20051;-75
2021/06/21 08:24:50;;;;;;;1.80;0.15;;;15.00;99.90;;;;;;5077115;28;20563;-75
2021/06/21 08:27:16;;;;;;;1.73;0.20;;;14.90;99.90;;;;;;5076856;28;20055;-75
2021/06/21 08:29:42;;;;;;;1.15;0.10;;;14.90;99.90;;;;;;5076470;28;20036;-75
2021/06/21 08:32:08;;;;;;;1.58;0.25;;;15.00;99.90;;;;;;5058780;28;20538;-74
2021/06/21 08:34:33;;;;;;;0.82;0.20;;;15.00;99.90;;;;;;5077026;28;20143;-74
2021/06/21 08:36:59;;;;;;;3.65;0.60;;;15.00;99.90;;;;;;5077106;28;20027;-75
2021/06/21 08:39:25;;;;;;;1.60;0.10;;;15.00;99.90;;;;;;5076786;28;20019;-75
2021/06/21 08:41:50;;;;;;;3.20;0.15;;;15.00;99.90;;;;;;5076745;28;20039;-75
2021/06/21 08:44:16;;;;;;;0.90;0.10;;;15.00;99.90;;;;;;5076248;28;20550;-75
2021/06/21 08:46:42;;;;;;;1.33;0.20;;;15.00;99.90;;;;;;5076561;28;20032;-75
2021/06/21 08:49:09;;;;;;;0.40;0.17;;;15.10;99.90;;;;;;5076623;28;20456;-75
2021/06/21 08:51:36;;;;;;;1.25;0.28;;;15.10;99.90;;;;;;5076395;28;20028;-74
2021/06/21 08:54:03;;;;;;;1.73;0.40;;;15.20;99.90;;;;;;5076408;28;20070;-75
2021/06/21 08:56:28;;;;;;;1.08;0.20;;;15.10;99.90;;;;;;5076788;28;20024;-75
2021/06/21 08:58:54;;;;;;;1.58;0.20;;;15.10;99.90;;;;;;5075968;28;20097;-76
2021/06/21 09:01:20;;;;;;;0.95;0.57;;;15.10;99.90;;;;;;5058622;28;20501;-75
2021/06/21 09:03:47;;;;;;;1.75;0.15;;;15.20;99.90;;;;;;5076338;28;20043;-75
2021/06/21 09:06:22;;;;;;;1.08;0.28;;;15.10;99.90;;;;;;5057251;28;20058;-75
2021/06/21 09:08:56;;;;;;;2.00;0.15;;;15.20;99.90;;;;;;5076073;28;20032;-75
2021/06/21 09:11:50;;;;;;;0.28;0.10;;;15.20;99.90;;;;;;5076292;28;20496;-75
2021/06/21 09:14:30;;;;;;;1.08;0.20;;;15.20;99.90;;;;;;5076453;28;20024;-75
2021/06/21 09:17:04;;;;;;;0.10;0.00;;;15.20;99.90;;;;;;5075940;28;20105;-77
2021/06/21 09:19:31;;;;;;;0.55;0.10;;;15.10;99.90;;;;;;5076284;28;20013;-77
2021/06/21 09:21:58;;;;;;;0.90;0.30;;;15.10;99.90;;;;;;5076214;28;20028;-75
2021/06/21 09:24:26;;;;;;;0.10;0.00;;;15.10;99.90;;;;;;5076134;28;20035;-75
2021/06/21 09:27:01;;;;;;;1.65;0.32;;;15.20;99.90;;;;;;5075784;28;20025;-74
2021/06/21 09:29:43;;;;;;;0.35;0.00;;;15.20;99.90;;;;;;5046340;28;20021;-75
2021/06/21 09:32:09;;;;;;;1.80;0.20;;;15.30;99.90;;;;;;5075902;28;20359;-75
2021/06/21 09:34:34;;;;;;;2.42;0.52;;;15.30;99.90;;;;;;5075117;28;20025;-74
2021/06/21 09:37:18;;;;;;;0.10;0.00;;;15.30;99.90;;;;;;5057360;28;20051;-74
2021/06/21 09:39:50;;;;;;;0.22;0.00;;;15.30;99.90;;;;;;5075725;28;20559;-74
2021/06/21 09:42:23;;;;;;;1.45;0.40;;;15.30;99.90;;;;;;5057435;28;20086;-76
2021/06/21 09:44:54;;;;;;;0.73;0.10;;;15.30;99.90;;;;;;5058021;28;20035;-75
2021/06/21 09:47:32;;;;;;;5.20;0.52;;;15.30;99.90;;;;;;5057114;28;20032;-74
2021/06/21 09:50:17;;;;;;;0.50;0.10;;;15.40;99.90;;;;;;5075732;28;20397;-75
2021/06/21 09:52:47;;;;;;;2.00;0.10;;;15.40;99.90;;;;;;5075892;28;20362;-75
2021/06/21 09:55:37;;;;;;;1.08;0.13;;;15.50;99.90;;;;;;5057598;28;20381;-75
2021/06/21 09:58:03;;;;;;;1.85;0.25;;;15.50;99.90;;;;;;5075418;28;20028;-74
2021/06/21 10:00:29;;;;;;;3.20;0.10;;;15.70;99.90;;;;;;5057438;28;20104;-75
2021/06/21 10:03:09;;;;;;;0.68;0.00;;;15.70;99.90;;;;;;5076077;28;20031;-77
2021/06/21 10:05:39;;;;;;;0.52;0.00;;;15.90;99.90;;;;;;5075417;28;20040;-74
2021/06/21 10:08:05;;;;;;;0.80;0.10;;;15.90;99.90;;;;;;5057861;28;20434;-75
2021/06/21 10:10:32;;;;;;;2.25;0.40;;;16.00;99.90;;;;;;5057600;28;20054;-74
2021/06/21 10:12:58;;;;;;;0.10;0.00;;;16.00;99.90;;;;;;5075050;28;20362;-74
2021/06/21 10:15:23;;;;;;;1.75;0.00;;;16.00;99.90;;;;;;5074934;28;20027;-74
2021/06/21 10:17:49;;;;;;;1.88;0.08;;;15.90;99.90;;;;;;5074960;28;20500;-74
2021/06/21 10:20:15;;;;;;;0.30;0.00;;;14.20;99.90;;;;;;5074723;28;20031;-74
2021/06/21 10:22:41;;;;;;;0.65;0.00;;;15.90;99.90;;;;;;5074671;28;20031;-74
2021/06/21 10:25:08;;;;;;;0.30;0.00;;;16.00;99.90;;;;;;5056650;28;20428;-78
2021/06/21 10:27:39;;;;;;;0.63;0.00;;;15.90;99.90;;;;;;5075404;28;20032;-75
2021/06/21 10:30:09;;;;;;;2.15;0.00;;;16.00;99.90;;;;;;5075761;28;20024;-75
2021/06/21 10:32:35;;;;;;;2.80;0.08;;;16.00;99.90;;;;;;5075981;28;20066;-75
2021/06/21 10:35:01;;;;;;;0.40;0.08;;;16.20;99.90;;;;;;5074998;28;20020;-78
2021/06/21 10:37:27;;;;;;;0.40;0.20;;;16.30;99.90;;;;;;5074793;28;20024;-74
2021/06/21 10:39:58;;;;;;;2.05;0.40;;;16.40;99.90;;;;;;5075248;28;20016;-74
2021/06/21 10:42:34;;;;;;;0.93;0.10;;;16.60;99.90;;;;;;5074265;28;20028;-75
2021/06/21 10:44:59;;;;;;;1.42;0.10;;;16.70;99.90;;;;;;5074411;28;20025;-75
2021/06/21 10:47:45;;;;;;;2.65;0.00;;;16.70;99.90;;;;;;5055552;28;20031;-75
2021/06/21 10:50:17;;;;;;;2.47;0.00;;;16.80;99.90;;;;;;5074485;28;20028;-75
2021/06/21 10:52:54;;;;;;;0.35;0.13;;;16.90;99.90;;;;;;5074394;28;20028;-76
2021/06/21 10:55:24;;;;;;;1.10;0.35;;;17.10;99.90;;;;;;5056386;28;20107;-76
2021/06/21 10:57:53;;;;;;;2.03;0.10;;;17.30;99.90;;;;;;5056278;28;20048;-75
2021/06/21 11:00:33;;;;;;;1.95;0.00;;;17.50;99.90;;;;;;5074724;28;20119;-75
2021/06/21 11:03:00;;;;;;;3.55;0.47;;;17.50;99.90;;;;;;5055268;28;20511;-76
2021/06/21 11:05:38;;;;;;;0.10;0.00;;;17.60;99.90;;;;;;5073647;28;20443;-76
2021/06/21 11:08:22;;;;;;;1.43;0.00;;;17.70;99.90;;;;;;5056316;28;20036;-76
2021/06/21 11:10:50;;;;;;;0.52;0.00;;;17.80;99.90;;;;;;5040763;28;20074;-75
2021/06/21 11:13:34;;;;;;;0.08;0.00;;;17.80;99.90;;;;;;5075036;28;20013;-75
2021/06/21 11:16:15;;;;;;;1.35;0.03;;;17.90;99.90;;;;;;5074349;28;20073;-75
2021/06/21 11:18:42;;;;;;;0.80;0.13;;;17.70;99.90;;;;;;5074065;28;20078;-76
2021/06/21 11:21:19;;;;;;;1.95;0.00;;;17.50;99.90;;;;;;5074041;28;20028;-75
2021/06/21 11:23:47;;;;;;;1.33;0.00;;;17.50;99.90;;;;;;5073881;28;20036;-76
2021/06/21 11:26:13;;;;;;;0.57;0.00;;;17.40;99.90;;;;;;5056236;28;20029;-76
2021/06/21 11:28:41;;;;;;;0.68;0.03;;;17.30;99.90;;;;;;5073807;28;20036;-76
2021/06/21 11:31:24;;;;;;;1.45;0.00;;;17.20;99.90;;;;;;5073820;28;20439;-76
2021/06/21 11:33:51;;;;;;;0.40;0.00;;;17.10;99.90;;;;;;5073191;28;20024;-77
2021/06/21 11:36:42;;;;;;;1.25;0.00;;;17.00;99.90;;;;;;5073992;28;20035;-76
2021/06/21 11:39:24;;;;;;;0.77;0.10;;;17.10;99.90;;;;;;5073349;28;20510;-76
2021/06/21 11:41:54;;;;;;;1.35;0.00;;;17.20;99.90;;;;;;5072983;28;20382;-77
2021/06/21 11:47:22;;;;;;;0.25;0.03;;;17.10;99.90;;;;;;5072776;28;20111;-76
2021/06/21 11:49:51;;;;;;;0.40;0.00;;;17.30;99.90;;;;;;5055362;28;20067;-76
2021/06/21 11:52:27;;;;;;;0.20;0.00;;;17.40;99.90;;;;;;5073752;28;20089;-76
2021/06/21 11:54:54;;;;;;;0.35;0.00;;;17.60;99.90;;;;;;5055553;28;20024;-76
2021/06/21 11:57:25;;;;;;;0.98;0.20;;;17.60;99.90;;;;;;5054646;28;20054;-76
2021/06/21 11:59:51;;;;;;;2.40;0.10;;;17.90;99.90;;;;;;5055366;28;20024;-76
2021/06/21 12:02:20;;;;;;;1.20;0.00;;;18.20;99.90;;;;;;5073336;28;20023;-76
2021/06/21 12:04:47;;;;;;;1.45;0.13;;;18.50;99.90;;;;;;5073261;28;20051;-76
2021/06/21 12:07:28;;;;;;;1.48;0.10;;;18.70;99.90;;;;;;5072793;28;20424;-76
2021/06/21 12:09:55;;;;;;;1.63;0.32;;;19.00;99.90;;;;;;5054709;28;20025;-76
2021/06/21 12:12:25;;;;;;;1.30;0.20;;;19.40;99.90;;;;;;5072570;28;20016;-76
2021/06/21 12:14:51;;;;;;;0.65;0.00;;;19.60;99.90;;;;;;5052915;28;20044;-76
2021/06/21 12:17:26;;;;;;;0.82;0.00;;;19.40;99.90;;;;;;5054519;28;20013;-76
2021/06/21 12:19:59;;;;;;;1.20;0.05;;;19.20;99.90;;;;;;5071981;28;20374;-76
2021/06/21 12:22:25;;;;;;;1.45;0.00;;;18.70;99.90;;;;;;5055071;28;20167;-76
2021/06/21 12:24:50;;;;;;;1.77;0.00;;;18.30;99.90;;;;;;5072815;28;20057;-77
2021/06/21 12:27:16;;;;;;;0.05;0.00;;;18.10;99.90;;;;;;5054972;28;20036;-76
2021/06/21 12:29:41;;;;;;;3.28;0.10;;;18.00;99.90;;;;;;5054409;28;20009;-77
2021/06/21 12:32:12;;;;;;;0.13;0.00;;;18.00;99.90;;;;;;5071967;28;20027;-77
2021/06/21 12:34:58;;;;;;;1.60;0.15;;;18.20;99.90;;;;;;5054976;28;20023;-76
2021/06/21 12:37:38;;;;;;;0.30;0.10;;;18.40;99.90;;;;;;5072852;28;20025;-76
2021/06/21 12:40:12;;;;;;;0.20;0.00;;;18.60;99.90;;;;;;5072654;28;20113;-76
2021/06/21 12:42:38;;;;;;;0.10;0.08;;;18.70;99.90;;;;;;5072598;28;20020;-76
2021/06/21 12:45:17;;;;;;;0.93;0.00;;;18.70;99.90;;;;;;5072849;28;20029;-76
2021/06/21 12:47:45;;;;;;;1.38;0.00;;;18.60;99.90;;;;;;5072814;28;20039;-76
2021/06/21 12:50:12;;;;;;;1.17;0.00;;;18.60;99.90;;;;;;5054440;28;20026;-76
2021/06/21 12:52:43;;;;;;;0.20;0.10;;;18.70;99.90;;;;;;5054635;28;20043;-77
2021/06/21 12:55:10;;;;;;;1.98;0.25;;;18.80;99.90;;;;;;5072739;28;20017;-76
2021/06/21 12:57:54;;;;;;;0.35;0.35;;;19.00;99.90;;;;;;5072313;28;20055;-76
2021/06/21 13:00:47;;;;;;;0.40;0.08;;;19.10;99.90;;;;;;5071639;28;20451;-77
2021/06/21 13:03:14;;;;;;;0.10;0.10;;;19.10;99.90;;;;;;5072394;28;20426;-77